createdAt,value
2023-05-19T00:01:29.586Z,6.80
2023-05-19T00:03:59.158Z,6.35
2023-05-19T00:06:31.972Z,5.38
2023-05-19T00:09:02.606Z,6.10
2023-05-19T00:11:30.516Z,5.50
2023-05-19T00:14:00.140Z,6.20
2023-05-19T00:16:28.506Z,6.18
2023-05-19T00:18:57.238Z,5.55
2023-05-19T00:21:24.233Z,6.20
2023-05-19T00:23:51.087Z,6.20
2023-05-19T00:26:18.056Z,6.75
2023-05-19T00:28:54.484Z,7.05
2023-05-19T00:31:21.614Z,7.32
2023-05-19T00:33:48.413Z,6.63
2023-05-19T00:36:15.405Z,6.55
2023-05-19T00:38:42.236Z,5.60
2023-05-19T00:41:09.223Z,5.85
2023-05-19T00:43:36.120Z,5.75
2023-05-19T00:46:03.600Z,5.82
2023-05-19T00:48:30.452Z,6.07
2023-05-19T00:51:02.424Z,5.07
2023-05-19T00:53:29.792Z,4.97
2023-05-19T00:55:57.950Z,4.93
2023-05-19T00:58:29.222Z,5.25
2023-05-19T01:01:04.063Z,5.72
2023-05-19T01:03:32.687Z,5.82
2023-05-19T01:06:05.193Z,6.30
2023-05-19T01:08:33.471Z,6.25
2023-05-19T01:11:00.596Z,6.80
2023-05-19T01:13:28.799Z,5.85
2023-05-19T01:16:30.813Z,6.15
2023-05-19T01:19:11.153Z,6.07
2023-05-19T01:22:22.936Z,6.43
2023-05-19T01:25:23.293Z,4.72
2023-05-19T01:28:30.752Z,6.70
2023-05-19T01:31:00.167Z,6.95
2023-05-19T01:33:29.493Z,6.50
2023-05-19T01:35:56.549Z,5.68
2023-05-19T01:38:25.154Z,6.38
2023-05-19T01:40:52.499Z,5.82
2023-05-19T01:43:22.069Z,5.65
2023-05-19T01:45:49.142Z,6.50
2023-05-19T01:48:16.647Z,5.88
2023-05-19T01:50:45.650Z,6.30
2023-05-19T01:53:12.725Z,6.07
2023-05-19T01:55:49.656Z,6.03
2023-05-19T01:58:43.144Z,5.82
2023-05-19T02:01:25.952Z,5.85
2023-05-19T02:04:18.775Z,6.80
2023-05-19T02:07:03.825Z,6.13
2023-05-19T02:09:53.452Z,6.30
2023-05-19T02:12:29.642Z,5.93
2023-05-19T02:15:06.926Z,5.93
2023-05-19T02:17:36.758Z,6.22
2023-05-19T02:20:04.714Z,6.15
2023-05-19T02:22:31.997Z,6.30
2023-05-19T02:24:58.874Z,5.82
2023-05-19T02:27:26.407Z,5.57
2023-05-19T02:29:53.725Z,6.72
2023-05-19T02:32:21.342Z,6.78
2023-05-19T02:34:48.988Z,5.78
2023-05-19T02:37:16.385Z,5.15
2023-05-19T02:39:43.448Z,4.72
2023-05-19T02:42:12.119Z,4.43
2023-05-19T02:44:39.002Z,3.75
2023-05-19T02:47:05.964Z,3.63
2023-05-19T02:49:36.141Z,4.35
2023-05-19T02:52:04.243Z,3.67
2023-05-19T02:54:31.773Z,4.40
2023-05-19T02:56:59.114Z,4.15
2023-05-19T02:59:26.102Z,4.00
2023-05-19T03:01:55.674Z,2.78
2023-05-19T03:04:22.766Z,3.05
2023-05-19T03:06:50.249Z,3.83
2023-05-19T03:09:17.199Z,3.67
2023-05-19T03:11:44.165Z,4.20
2023-05-19T03:14:12.144Z,3.72
2023-05-19T03:16:41.341Z,4.90
2023-05-19T03:19:09.241Z,3.53
2023-05-19T03:21:36.752Z,3.47
2023-05-19T03:24:03.926Z,3.88
2023-05-19T03:26:30.790Z,4.20
2023-05-19T03:29:00.281Z,4.78
2023-05-19T03:31:27.325Z,4.28
2023-05-19T03:33:54.455Z,3.25
2023-05-19T03:36:22.693Z,3.63
2023-05-19T03:38:49.831Z,4.70
2023-05-19T03:41:16.799Z,3.97
2023-05-19T03:43:43.663Z,4.40
2023-05-19T03:46:10.687Z,2.30
2023-05-19T03:48:57.454Z,4.00
2023-05-19T03:51:44.378Z,3.85
2023-05-19T03:54:27.537Z,3.65
2023-05-19T03:56:54.570Z,2.97
2023-05-19T03:59:21.435Z,3.78
2023-05-19T04:01:48.886Z,2.97
2023-05-19T04:04:15.857Z,3.20
2023-05-19T04:06:42.856Z,3.13
2023-05-19T04:39:45.464Z,2.25
2023-05-19T04:42:14.187Z,1.98
2023-05-19T04:44:41.432Z,1.77
2023-05-19T04:47:09.197Z,2.03
2023-05-19T04:49:39.003Z,2.35
2023-05-19T15:23:56.585Z,2.92
2023-05-19T15:26:23.709Z,2.72
2023-05-19T15:28:52.486Z,3.30
2023-05-19T15:31:19.567Z,2.60
2023-05-19T15:33:47.308Z,2.60
2023-05-19T15:36:16.472Z,4.78
2023-05-19T15:38:43.499Z,3.78
2023-05-19T15:41:10.671Z,4.03
2023-05-19T15:43:37.660Z,3.38
2023-05-19T15:46:05.208Z,2.60
2023-05-19T15:48:32.701Z,2.60
2023-05-19T15:51:01.434Z,2.60
2023-05-19T15:53:28.427Z,3.55
2023-05-19T15:55:57.330Z,4.50
2023-05-19T15:58:24.241Z,4.80
2023-05-19T16:00:51.366Z,10.38
2023-05-19T16:03:18.266Z,5.60
2023-05-19T16:05:45.447Z,9.20
2023-05-19T16:08:12.418Z,4.95
2023-05-19T16:10:39.437Z,4.35
2023-05-19T16:13:06.324Z,3.25
2023-05-19T16:15:33.221Z,5.80
2023-05-19T16:18:00.246Z,8.68
2023-05-19T16:20:29.685Z,6.43
2023-05-19T16:22:57.014Z,4.22
2023-05-19T16:25:24.252Z,3.78
2023-05-19T16:27:51.570Z,3.10
2023-05-19T16:30:18.608Z,3.67
2023-05-19T16:32:45.551Z,4.03
2023-05-19T16:35:12.518Z,2.38
2023-05-19T16:37:39.782Z,2.50
2023-05-19T16:40:07.182Z,2.00
2023-05-19T16:42:34.076Z,2.20
2023-05-19T16:45:01.447Z,1.95
2023-05-19T16:47:28.799Z,1.90
2023-05-19T16:49:55.814Z,1.75
2023-05-19T16:52:23.040Z,2.60
2023-05-19T16:54:49.903Z,2.47
2023-05-19T16:57:16.779Z,2.55
2023-05-19T16:59:43.733Z,2.97
2023-05-19T17:02:10.654Z,3.13
2023-05-19T17:04:37.531Z,3.08
2023-05-19T17:07:04.535Z,3.25
2023-05-19T17:09:31.466Z,3.20
2023-05-19T17:11:58.399Z,3.60
2023-05-19T17:14:25.247Z,2.97
2023-05-19T17:16:52.608Z,3.90
2023-05-19T17:19:19.489Z,3.45
2023-05-19T17:21:46.519Z,3.30
2023-05-19T17:24:13.490Z,3.47
2023-05-19T17:26:40.382Z,4.18
2023-05-19T17:29:07.344Z,4.22
2023-05-19T17:31:34.240Z,4.53
2023-05-19T17:34:01.153Z,5.75
2023-05-19T17:36:34.539Z,7.28
2023-05-19T17:39:01.809Z,2.95
2023-05-19T17:41:28.619Z,3.10
2023-05-19T17:44:01.930Z,5.20
2023-05-19T17:46:34.703Z,6.95
2023-05-19T17:49:02.032Z,3.97
2023-05-19T17:51:30.014Z,3.85
2023-05-19T17:54:00.764Z,5.65
2023-05-19T17:56:32.164Z,7.43
2023-05-19T17:59:00.164Z,4.47
2023-05-19T18:01:27.349Z,4.25
2023-05-19T18:03:54.682Z,4.28
2023-05-19T18:06:22.501Z,4.40
2023-05-19T18:08:52.749Z,5.13
2023-05-19T18:11:21.335Z,4.75
2023-05-19T18:13:48.386Z,4.43
2023-05-19T18:16:15.253Z,4.38
2023-05-19T18:18:50.666Z,4.75
2023-05-19T18:21:18.138Z,4.90
2023-05-19T18:23:45.968Z,5.30
2023-05-19T18:26:13.692Z,5.15
2023-05-19T18:28:41.498Z,5.15
2023-05-19T18:31:09.326Z,5.22
2023-05-19T18:33:36.376Z,5.20
2023-05-19T18:36:03.293Z,5.00
2023-05-19T18:38:30.173Z,4.47
2023-05-19T18:40:57.156Z,4.78
2023-05-19T19:05:04.331Z,4.57
2023-05-19T19:07:34.183Z,4.55
2023-05-19T19:10:08.454Z,4.90
2023-05-19T19:13:00.949Z,4.93
2023-05-19T19:15:28.402Z,5.60
2023-05-19T19:17:55.595Z,5.10
2023-05-19T19:20:22.731Z,5.20
2023-05-19T19:22:50.280Z,5.35
2023-05-19T19:25:17.188Z,5.55
2023-05-19T19:27:44.136Z,5.85
2023-05-19T19:30:11.102Z,5.60
2023-05-19T19:32:38.610Z,5.53
2023-05-19T19:35:06.082Z,5.60
2023-05-19T19:37:33.704Z,6.15
2023-05-19T19:40:00.813Z,6.30
2023-05-19T19:42:27.952Z,6.13
2023-05-19T19:44:55.851Z,5.63
2023-05-19T19:47:22.724Z,5.68
2023-05-19T19:49:49.648Z,5.60
2023-05-19T19:52:17.122Z,5.45
2023-05-19T19:54:44.695Z,5.50
2023-05-19T19:57:11.785Z,4.88
2023-05-19T19:59:38.878Z,4.60
2023-05-19T20:02:05.693Z,4.95
2023-05-19T20:04:32.950Z,4.47
2023-05-19T20:07:09.873Z,5.07
2023-05-19T20:09:36.672Z,5.55
2023-05-19T20:12:03.745Z,5.05
2023-05-19T20:14:31.418Z,4.53
2023-05-19T20:21:46.204Z,5.70
2023-05-19T20:28:24.378Z,5.00
2023-05-19T20:30:52.102Z,5.50
2023-05-19T20:33:20.310Z,4.50
2023-05-19T20:35:52.214Z,5.20
2023-05-19T20:40:48.180Z,5.10
2023-05-19T20:43:15.609Z,5.72
2023-05-19T20:45:45.899Z,5.30
2023-05-19T20:48:16.389Z,5.40
2023-05-19T20:50:45.067Z,4.77
2023-05-19T20:53:11.985Z,5.35
2023-05-19T20:55:39.556Z,5.25
2023-05-19T21:01:08.012Z,4.70
2023-05-19T21:03:35.520Z,4.88
2023-05-19T21:06:02.469Z,4.45
2023-05-19T21:08:29.902Z,4.55
2023-05-19T21:10:56.764Z,4.40
2023-05-19T21:13:24.850Z,4.32
2023-05-19T21:15:52.376Z,4.05
2023-05-19T21:18:19.439Z,4.47
2023-05-19T21:20:46.454Z,4.28
2023-05-19T21:23:13.359Z,4.18
2023-05-19T21:25:40.796Z,4.25
2023-05-19T21:28:09.535Z,3.22
2023-05-19T22:08:02.556Z,1.60
2023-05-19T22:10:29.566Z,1.75
2023-05-19T22:12:57.479Z,1.88
2023-05-19T22:15:24.430Z,1.73
2023-05-19T22:17:51.268Z,1.45
2023-05-19T22:20:21.419Z,1.42
2023-05-19T22:22:48.348Z,1.15
2023-05-19T22:25:15.370Z,1.33
2023-05-19T22:27:42.192Z,1.15
2023-05-19T22:30:09.315Z,1.05
2023-05-19T22:32:36.478Z,0.88
2023-05-19T22:35:03.769Z,0.80
2023-05-19T22:37:30.645Z,0.90
2023-05-19T22:40:01.438Z,0.80
2023-05-19T22:42:28.718Z,1.13
2023-05-19T22:44:55.851Z,0.70
2023-05-19T22:47:22.730Z,0.77
2023-05-19T22:49:50.391Z,0.90
2023-05-19T22:52:17.612Z,0.85
2023-05-19T22:54:44.602Z,1.00
2023-05-19T22:57:11.725Z,0.52
2023-05-19T22:59:38.584Z,0.90
2023-05-19T23:02:06.058Z,0.85
2023-05-19T23:04:33.994Z,0.75
2023-05-19T23:07:01.453Z,1.25
2023-05-19T23:09:28.441Z,0.73
2023-05-19T23:11:55.288Z,0.55
2023-05-19T23:14:22.177Z,0.85
2023-05-19T23:16:49.247Z,0.90
2023-05-19T23:19:17.494Z,0.70
2023-05-19T23:21:48.125Z,0.77
2023-05-19T23:24:16.044Z,0.70
2023-05-19T23:26:46.006Z,0.82
2023-05-19T23:29:13.522Z,0.82
2023-05-19T23:31:44.515Z,0.80
2023-05-19T23:34:11.574Z,0.82
2023-05-19T23:36:38.432Z,0.95
2023-05-19T23:39:05.258Z,0.80
2023-05-19T23:41:32.382Z,0.60
2023-05-19T23:43:59.302Z,0.57
2023-05-19T23:46:26.446Z,0.90
2023-05-19T23:48:53.375Z,1.00
2023-05-19T23:51:20.258Z,0.60
2023-05-19T23:53:47.202Z,0.63
2023-05-19T23:56:14.682Z,0.52
2023-05-19T23:58:41.709Z,0.70
